sensor_id;sensor_type;location;lat;lon;timestamp;temperature;humidity
51476;DHT22;37554;50.362;7.568;2023-03-12T00:02:07;14.20;38.60
51476;DHT22;37554;50.362;7.568;2023-03-12T00:04:33;14.20;38.80
51476;DHT22;37554;50.362;7.568;2023-03-12T00:07:00;14.20;38.80
51476;DHT22;37554;50.362;7.568;2023-03-12T00:09:26;14.20;38.90
51476;DHT22;37554;50.362;7.568;2023-03-12T00:11:52;14.10;38.90
51476;DHT22;37554;50.362;7.568;2023-03-12T00:14:17;14.10;38.90
51476;DHT22;37554;50.362;7.568;2023-03-12T00:16:43;14.10;38.90
51476;DHT22;37554;50.362;7.568;2023-03-12T00:19:11;14.10;38.90
51476;DHT22;37554;50.362;7.568;2023-03-12T00:21:37;14.10;39.00
51476;DHT22;37554;50.362;7.568;2023-03-12T00:24:03;14.10;38.90
51476;DHT22;37554;50.362;7.568;2023-03-12T00:26:28;14.10;38.90
51476;DHT22;37554;50.362;7.568;2023-03-12T00:28:55;14.10;39.00
51476;DHT22;37554;50.362;7.568;2023-03-12T00:31:27;14.10;39.00
51476;DHT22;37554;50.362;7.568;2023-03-12T00:33:54;14.00;39.10
51476;DHT22;37554;50.362;7.568;2023-03-12T00:36:22;14.00;39.10
51476;DHT22;37554;50.362;7.568;2023-03-12T00:38:52;14.00;39.10
51476;DHT22;37554;50.362;7.568;2023-03-12T00:41:18;14.00;39.80
51476;DHT22;37554;50.362;7.568;2023-03-12T00:43:50;13.90;39.10
51476;DHT22;37554;50.362;7.568;2023-03-12T00:46:16;13.90;39.20
51476;DHT22;37554;50.362;7.568;2023-03-12T00:48:42;13.80;39.30
51476;DHT22;37554;50.362;7.568;2023-03-12T00:51:07;13.80;39.30
51476;DHT22;37554;50.362;7.568;2023-03-12T00:53:34;13.80;39.40
51476;DHT22;37554;50.362;7.568;2023-03-12T00:56:00;13.80;39.40
51476;DHT22;37554;50.362;7.568;2023-03-12T00:58:25;13.80;39.40
51476;DHT22;37554;50.362;7.568;2023-03-12T01:00:51;13.80;39.40
51476;DHT22;37554;50.362;7.568;2023-03-12T01:03:17;13.80;39.40
51476;DHT22;37554;50.362;7.568;2023-03-12T01:05:42;13.80;39.40
51476;DHT22;37554;50.362;7.568;2023-03-12T01:08:09;13.80;40.10
51476;DHT22;37554;50.362;7.568;2023-03-12T01:10:36;13.70;39.50
51476;DHT22;37554;50.362;7.568;2023-03-12T01:13:01;13.70;39.50
51476;DHT22;37554;50.362;7.568;2023-03-12T01:15:28;13.70;39.60
51476;DHT22;37554;50.362;7.568;2023-03-12T01:17:53;13.70;39.60
51476;DHT22;37554;50.362;7.568;2023-03-12T01:20:19;13.70;39.60
51476;DHT22;37554;50.362;7.568;2023-03-12T01:22:45;13.60;39.70
51476;DHT22;37554;50.362;7.568;2023-03-12T01:25:11;13.60;39.80
51476;DHT22;37554;50.362;7.568;2023-03-12T01:27:37;13.70;39.80
51476;DHT22;37554;50.362;7.568;2023-03-12T01:30:04;13.60;39.70
51476;DHT22;37554;50.362;7.568;2023-03-12T01:32:30;13.60;39.80
51476;DHT22;37554;50.362;7.568;2023-03-12T01:34:57;13.60;39.90
51476;DHT22;37554;50.362;7.568;2023-03-12T01:37:23;13.60;39.90
51476;DHT22;37554;50.362;7.568;2023-03-12T01:39:48;13.50;40.00
51476;DHT22;37554;50.362;7.568;2023-03-12T01:42:14;13.60;40.00
51476;DHT22;37554;50.362;7.568;2023-03-12T01:44:58;13.60;40.00
51476;DHT22;37554;50.362;7.568;2023-03-12T01:47:24;13.50;40.10
51476;DHT22;37554;50.362;7.568;2023-03-12T01:49:52;13.50;40.10
51476;DHT22;37554;50.362;7.568;2023-03-12T01:52:26;13.50;40.10
51476;DHT22;37554;50.362;7.568;2023-03-12T01:57:36;13.50;40.20
51476;DHT22;37554;50.362;7.568;2023-03-12T02:00:10;13.40;40.20
51476;DHT22;37554;50.362;7.568;2023-03-12T02:02:37;13.40;40.20
51476;DHT22;37554;50.362;7.568;2023-03-12T02:05:24;13.40;40.30
51476;DHT22;37554;50.362;7.568;2023-03-12T02:07:51;13.40;40.40
51476;DHT22;37554;50.362;7.568;2023-03-12T02:10:17;13.40;40.30
51476;DHT22;37554;50.362;7.568;2023-03-12T02:12:43;13.40;40.40
51476;DHT22;37554;50.362;7.568;2023-03-12T02:15:09;13.40;40.50
51476;DHT22;37554;50.362;7.568;2023-03-12T02:17:36;13.30;40.50
51476;DHT22;37554;50.362;7.568;2023-03-12T02:23:01;13.30;40.70
51476;DHT22;37554;50.362;7.568;2023-03-12T02:25:37;13.20;40.70
51476;DHT22;37554;50.362;7.568;2023-03-12T02:28:08;13.20;40.80
51476;DHT22;37554;50.362;7.568;2023-03-12T02:30:34;13.20;40.90
51476;DHT22;37554;50.362;7.568;2023-03-12T02:33:05;13.20;40.80
51476;DHT22;37554;50.362;7.568;2023-03-12T02:35:31;13.20;40.80
51476;DHT22;37554;50.362;7.568;2023-03-12T02:37:56;13.20;40.90
51476;DHT22;37554;50.362;7.568;2023-03-12T02:40:29;13.20;40.90
51476;DHT22;37554;50.362;7.568;2023-03-12T02:42:56;13.20;40.90
51476;DHT22;37554;50.362;7.568;2023-03-12T02:45:23;13.20;41.00
51476;DHT22;37554;50.362;7.568;2023-03-12T02:47:50;13.10;41.00
51476;DHT22;37554;50.362;7.568;2023-03-12T02:50:15;13.20;41.10
51476;DHT22;37554;50.362;7.568;2023-03-12T02:52:41;13.20;41.10
51476;DHT22;37554;50.362;7.568;2023-03-12T02:55:07;13.10;41.10
51476;DHT22;37554;50.362;7.568;2023-03-12T02:57:33;13.10;41.20
51476;DHT22;37554;50.362;7.568;2023-03-12T03:00:06;13.10;41.20
51476;DHT22;37554;50.362;7.568;2023-03-12T03:02:32;13.10;41.40
51476;DHT22;37554;50.362;7.568;2023-03-12T03:04:57;13.00;41.30
51476;DHT22;37554;50.362;7.568;2023-03-12T03:07:23;13.00;41.50
51476;DHT22;37554;50.362;7.568;2023-03-12T03:09:49;12.90;41.60
51476;DHT22;37554;50.362;7.568;2023-03-12T03:12:14;13.00;41.70
51476;DHT22;37554;50.362;7.568;2023-03-12T03:14:40;13.00;41.60
51476;DHT22;37554;50.362;7.568;2023-03-12T03:17:05;13.00;41.60
51476;DHT22;37554;50.362;7.568;2023-03-12T03:19:31;13.00;41.50
51476;DHT22;37554;50.362;7.568;2023-03-12T03:21:57;13.00;41.50
51476;DHT22;37554;50.362;7.568;2023-03-12T03:24:22;13.00;41.50
51476;DHT22;37554;50.362;7.568;2023-03-12T03:26:48;13.00;41.60
51476;DHT22;37554;50.362;7.568;2023-03-12T03:29:13;12.90;42.20
51476;DHT22;37554;50.362;7.568;2023-03-12T03:31:39;13.00;41.60
51476;DHT22;37554;50.362;7.568;2023-03-12T03:34:05;13.00;41.60
51476;DHT22;37554;50.362;7.568;2023-03-12T03:36:31;12.90;41.50
51476;DHT22;37554;50.362;7.568;2023-03-12T03:38:56;12.90;41.50
51476;DHT22;37554;50.362;7.568;2023-03-12T03:41:22;12.90;41.60
51476;DHT22;37554;50.362;7.568;2023-03-12T03:43:57;12.90;41.60
51476;DHT22;37554;50.362;7.568;2023-03-12T03:46:23;12.90;42.20
51476;DHT22;37554;50.362;7.568;2023-03-12T03:48:49;12.80;41.60
51476;DHT22;37554;50.362;7.568;2023-03-12T03:51:15;12.80;41.60
51476;DHT22;37554;50.362;7.568;2023-03-12T03:53:41;12.80;41.60
51476;DHT22;37554;50.362;7.568;2023-03-12T03:56:09;12.80;41.60
51476;DHT22;37554;50.362;7.568;2023-03-12T03:58:35;12.80;41.60
51476;DHT22;37554;50.362;7.568;2023-03-12T04:01:01;12.80;41.70
51476;DHT22;37554;50.362;7.568;2023-03-12T04:03:27;12.80;41.70
51476;DHT22;37554;50.362;7.568;2023-03-12T04:06:03;12.80;41.70
51476;DHT22;37554;50.362;7.568;2023-03-12T04:08:29;12.80;41.80
51476;DHT22;37554;50.362;7.568;2023-03-12T04:10:56;12.80;41.80
51476;DHT22;37554;50.362;7.568;2023-03-12T04:13:22;12.80;41.80
51476;DHT22;37554;50.362;7.568;2023-03-12T04:15:49;12.80;41.90
51476;DHT22;37554;50.362;7.568;2023-03-12T04:18:15;12.80;41.90
51476;DHT22;37554;50.362;7.568;2023-03-12T04:20:41;12.80;41.90
51476;DHT22;37554;50.362;7.568;2023-03-12T04:23:07;12.80;41.90
51476;DHT22;37554;50.362;7.568;2023-03-12T04:25:32;12.80;42.00
51476;DHT22;37554;50.362;7.568;2023-03-12T04:27:58;12.80;42.10
51476;DHT22;37554;50.362;7.568;2023-03-12T04:30:23;12.80;42.10
51476;DHT22;37554;50.362;7.568;2023-03-12T04:32:49;12.80;42.10
51476;DHT22;37554;50.362;7.568;2023-03-12T04:35:15;12.80;42.10
51476;DHT22;37554;50.362;7.568;2023-03-12T04:37:40;12.80;42.20
51476;DHT22;37554;50.362;7.568;2023-03-12T04:40:06;12.80;42.30
51476;DHT22;37554;50.362;7.568;2023-03-12T04:42:34;12.80;42.30
51476;DHT22;37554;50.362;7.568;2023-03-12T04:45:00;12.80;42.30
51476;DHT22;37554;50.362;7.568;2023-03-12T04:47:26;12.80;42.40
51476;DHT22;37554;50.362;7.568;2023-03-12T04:49:51;12.80;42.40
51476;DHT22;37554;50.362;7.568;2023-03-12T04:52:17;12.80;42.40
51476;DHT22;37554;50.362;7.568;2023-03-12T04:54:43;12.70;42.40
51476;DHT22;37554;50.362;7.568;2023-03-12T04:57:09;12.70;42.50
51476;DHT22;37554;50.362;7.568;2023-03-12T04:59:35;12.70;42.40
51476;DHT22;37554;50.362;7.568;2023-03-12T05:02:00;12.70;42.40
51476;DHT22;37554;50.362;7.568;2023-03-12T05:04:26;12.60;42.50
51476;DHT22;37554;50.362;7.568;2023-03-12T05:06:51;12.70;42.60
51476;DHT22;37554;50.362;7.568;2023-03-12T05:09:17;12.70;42.60
51476;DHT22;37554;50.362;7.568;2023-03-12T05:11:43;12.70;42.50
51476;DHT22;37554;50.362;7.568;2023-03-12T05:14:10;12.70;42.60
51476;DHT22;37554;50.362;7.568;2023-03-12T05:16:37;12.60;42.50
51476;DHT22;37554;50.362;7.568;2023-03-12T05:19:02;12.60;42.70
51476;DHT22;37554;50.362;7.568;2023-03-12T05:21:28;12.60;42.70
51476;DHT22;37554;50.362;7.568;2023-03-12T05:23:54;12.60;42.80
51476;DHT22;37554;50.362;7.568;2023-03-12T05:26:31;12.60;42.90
51476;DHT22;37554;50.362;7.568;2023-03-12T05:28:57;12.50;43.00
51476;DHT22;37554;50.362;7.568;2023-03-12T05:31:23;12.50;43.00
51476;DHT22;37554;50.362;7.568;2023-03-12T05:33:49;12.50;43.20
51476;DHT22;37554;50.362;7.568;2023-03-12T05:36:15;12.50;43.20
51476;DHT22;37554;50.362;7.568;2023-03-12T05:38:41;12.60;43.30
51476;DHT22;37554;50.362;7.568;2023-03-12T05:41:09;12.60;43.30
51476;DHT22;37554;50.362;7.568;2023-03-12T05:43:41;12.60;43.30
51476;DHT22;37554;50.362;7.568;2023-03-12T05:46:08;12.70;43.40
51476;DHT22;37554;50.362;7.568;2023-03-12T05:48:33;12.70;43.50
51476;DHT22;37554;50.362;7.568;2023-03-12T05:50:59;12.80;43.50
51476;DHT22;37554;50.362;7.568;2023-03-12T05:53:25;12.80;43.50
51476;DHT22;37554;50.362;7.568;2023-03-12T05:55:51;12.80;43.60
51476;DHT22;37554;50.362;7.568;2023-03-12T05:58:16;12.80;43.70
51476;DHT22;37554;50.362;7.568;2023-03-12T06:00:42;12.80;43.60
51476;DHT22;37554;50.362;7.568;2023-03-12T06:03:09;12.90;43.70
51476;DHT22;37554;50.362;7.568;2023-03-12T06:05:35;12.80;43.80
51476;DHT22;37554;50.362;7.568;2023-03-12T06:08:02;12.90;43.90
51476;DHT22;37554;50.362;7.568;2023-03-12T06:10:28;12.90;43.90
51476;DHT22;37554;50.362;7.568;2023-03-12T06:12:54;13.00;44.00
51476;DHT22;37554;50.362;7.568;2023-03-12T06:15:20;12.90;43.90
51476;DHT22;37554;50.362;7.568;2023-03-12T06:17:45;12.90;44.00
51476;DHT22;37554;50.362;7.568;2023-03-12T06:20:11;13.00;44.10
51476;DHT22;37554;50.362;7.568;2023-03-12T06:22:37;13.00;44.10
51476;DHT22;37554;50.362;7.568;2023-03-12T06:25:03;13.00;44.10
51476;DHT22;37554;50.362;7.568;2023-03-12T06:27:29;13.00;44.10
51476;DHT22;37554;50.362;7.568;2023-03-12T06:29:55;13.00;44.20
51476;DHT22;37554;50.362;7.568;2023-03-12T06:32:21;13.00;44.20
51476;DHT22;37554;50.362;7.568;2023-03-12T06:34:46;13.00;44.20
51476;DHT22;37554;50.362;7.568;2023-03-12T06:37:12;13.00;44.40
51476;DHT22;37554;50.362;7.568;2023-03-12T06:39:38;12.90;44.40
51476;DHT22;37554;50.362;7.568;2023-03-12T06:42:04;12.90;44.40
51476;DHT22;37554;50.362;7.568;2023-03-12T06:44:30;12.90;44.50
51476;DHT22;37554;50.362;7.568;2023-03-12T06:46:55;12.90;44.60
51476;DHT22;37554;50.362;7.568;2023-03-12T06:49:21;12.90;45.20
51476;DHT22;37554;50.362;7.568;2023-03-12T06:51:47;12.90;44.60
51476;DHT22;37554;50.362;7.568;2023-03-12T06:54:13;12.90;44.70
51476;DHT22;37554;50.362;7.568;2023-03-12T06:56:38;13.00;44.70
51476;DHT22;37554;50.362;7.568;2023-03-12T06:59:04;13.00;44.70
51476;DHT22;37554;50.362;7.568;2023-03-12T07:01:30;13.10;44.70
51476;DHT22;37554;50.362;7.568;2023-03-12T07:03:55;13.10;44.70
51476;DHT22;37554;50.362;7.568;2023-03-12T07:06:22;13.10;44.70
51476;DHT22;37554;50.362;7.568;2023-03-12T07:08:48;13.10;44.70
51476;DHT22;37554;50.362;7.568;2023-03-12T07:11:14;13.10;44.70
51476;DHT22;37554;50.362;7.568;2023-03-12T07:13:40;13.20;44.80
51476;DHT22;37554;50.362;7.568;2023-03-12T07:16:07;13.10;44.80
51476;DHT22;37554;50.362;7.568;2023-03-12T07:18:32;13.10;45.00
51476;DHT22;37554;50.362;7.568;2023-03-12T07:20:58;13.10;45.00
51476;DHT22;37554;50.362;7.568;2023-03-12T07:23:24;13.10;45.20
51476;DHT22;37554;50.362;7.568;2023-03-12T07:25:50;13.10;45.20
51476;DHT22;37554;50.362;7.568;2023-03-12T07:28:17;13.10;45.30
51476;DHT22;37554;50.362;7.568;2023-03-12T07:30:43;13.10;45.30
51476;DHT22;37554;50.362;7.568;2023-03-12T07:33:16;13.10;45.30
51476;DHT22;37554;50.362;7.568;2023-03-12T07:35:42;13.00;44.90
51476;DHT22;37554;50.362;7.568;2023-03-12T07:38:07;12.40;45.60
51476;DHT22;37554;50.362;7.568;2023-03-12T07:40:34;11.90;46.30
51476;DHT22;37554;50.362;7.568;2023-03-12T07:43:00;11.80;47.10
51476;DHT22;37554;50.362;7.568;2023-03-12T07:45:26;12.10;47.80
51476;DHT22;37554;50.362;7.568;2023-03-12T07:47:51;12.40;47.50
51476;DHT22;37554;50.362;7.568;2023-03-12T07:50:17;12.60;46.90
51476;DHT22;37554;50.362;7.568;2023-03-12T07:52:44;12.90;46.60
51476;DHT22;37554;50.362;7.568;2023-03-12T07:55:10;13.00;46.10
51476;DHT22;37554;50.362;7.568;2023-03-12T07:57:36;13.20;45.80
51476;DHT22;37554;50.362;7.568;2023-03-12T08:00:03;13.30;45.70
51476;DHT22;37554;50.362;7.568;2023-03-12T08:02:35;13.40;45.60
51476;DHT22;37554;50.362;7.568;2023-03-12T08:05:01;13.50;45.40
51476;DHT22;37554;50.362;7.568;2023-03-12T08:07:27;13.60;45.40
51476;DHT22;37554;50.362;7.568;2023-03-12T08:10:00;13.70;45.60
51476;DHT22;37554;50.362;7.568;2023-03-12T08:12:26;13.70;45.90
51476;DHT22;37554;50.362;7.568;2023-03-12T08:14:52;13.70;46.00
51476;DHT22;37554;50.362;7.568;2023-03-12T08:17:44;13.70;46.20
51476;DHT22;37554;50.362;7.568;2023-03-12T08:20:10;13.60;46.20
51476;DHT22;37554;50.362;7.568;2023-03-12T08:22:37;13.60;46.10
51476;DHT22;37554;50.362;7.568;2023-03-12T08:25:12;13.60;46.10
51476;DHT22;37554;50.362;7.568;2023-03-12T08:27:44;13.70;45.90
51476;DHT22;37554;50.362;7.568;2023-03-12T08:30:10;13.70;45.80
51476;DHT22;37554;50.362;7.568;2023-03-12T08:32:39;13.70;45.60
51476;DHT22;37554;50.362;7.568;2023-03-12T08:35:05;13.70;45.60
51476;DHT22;37554;50.362;7.568;2023-03-12T08:37:31;13.70;45.50
51476;DHT22;37554;50.362;7.568;2023-03-12T08:39:57;13.70;45.50
51476;DHT22;37554;50.362;7.568;2023-03-12T08:42:23;13.70;45.50
51476;DHT22;37554;50.362;7.568;2023-03-12T08:44:48;13.80;45.40
51476;DHT22;37554;50.362;7.568;2023-03-12T08:47:14;13.80;45.50
51476;DHT22;37554;50.362;7.568;2023-03-12T08:49:40;13.80;45.70
51476;DHT22;37554;50.362;7.568;2023-03-12T08:52:05;13.80;45.70
51476;DHT22;37554;50.362;7.568;2023-03-12T08:54:31;13.80;45.90
51476;DHT22;37554;50.362;7.568;2023-03-12T08:56:56;13.80;45.90
51476;DHT22;37554;50.362;7.568;2023-03-12T08:59:22;13.80;46.00
51476;DHT22;37554;50.362;7.568;2023-03-12T09:01:48;13.80;46.10
51476;DHT22;37554;50.362;7.568;2023-03-12T09:04:14;13.80;46.10
51476;DHT22;37554;50.362;7.568;2023-03-12T09:06:39;13.80;46.20
51476;DHT22;37554;50.362;7.568;2023-03-12T09:09:05;13.80;46.30
51476;DHT22;37554;50.362;7.568;2023-03-12T09:11:34;13.80;46.40
51476;DHT22;37554;50.362;7.568;2023-03-12T09:14:01;13.80;46.40
51476;DHT22;37554;50.362;7.568;2023-03-12T09:16:26;13.80;46.40
51476;DHT22;37554;50.362;7.568;2023-03-12T09:18:53;13.80;46.40
51476;DHT22;37554;50.362;7.568;2023-03-12T09:21:18;13.80;46.40
51476;DHT22;37554;50.362;7.568;2023-03-12T09:23:44;13.80;46.50
51476;DHT22;37554;50.362;7.568;2023-03-12T09:26:11;13.90;46.60
51476;DHT22;37554;50.362;7.568;2023-03-12T09:28:36;13.90;46.60
51476;DHT22;37554;50.362;7.568;2023-03-12T09:31:03;13.90;46.60
51476;DHT22;37554;50.362;7.568;2023-03-12T09:33:29;13.90;46.70
51476;DHT22;37554;50.362;7.568;2023-03-12T09:35:56;13.90;46.80
51476;DHT22;37554;50.362;7.568;2023-03-12T09:38:22;13.90;46.70
51476;DHT22;37554;50.362;7.568;2023-03-12T09:40:48;13.90;46.90
51476;DHT22;37554;50.362;7.568;2023-03-12T09:43:26;13.90;46.90
51476;DHT22;37554;50.362;7.568;2023-03-12T09:45:56;13.80;47.10
51476;DHT22;37554;50.362;7.568;2023-03-12T09:48:32;13.90;47.00
51476;DHT22;37554;50.362;7.568;2023-03-12T09:51:08;13.90;47.10
51476;DHT22;37554;50.362;7.568;2023-03-12T09:53:51;14.00;47.00
51476;DHT22;37554;50.362;7.568;2023-03-12T09:56:19;14.00;47.10
51476;DHT22;37554;50.362;7.568;2023-03-12T09:58:46;14.00;47.10
51476;DHT22;37554;50.362;7.568;2023-03-12T10:01:23;14.00;47.10
51476;DHT22;37554;50.362;7.568;2023-03-12T10:07:00;14.10;47.30
51476;DHT22;37554;50.362;7.568;2023-03-12T10:09:39;14.20;47.20
51476;DHT22;37554;50.362;7.568;2023-03-12T10:12:27;14.30;47.10
51476;DHT22;37554;50.362;7.568;2023-03-12T10:15:57;14.50;47.00
51476;DHT22;37554;50.362;7.568;2023-03-12T10:23:53;14.80;46.80
51476;DHT22;37554;50.362;7.568;2023-03-12T10:26:22;14.90;47.30
51476;DHT22;37554;50.362;7.568;2023-03-12T10:28:48;14.90;46.80
51476;DHT22;37554;50.362;7.568;2023-03-12T10:31:24;15.00;46.80
51476;DHT22;37554;50.362;7.568;2023-03-12T10:33:57;15.20;46.90
51476;DHT22;37554;50.362;7.568;2023-03-12T10:36:27;15.40;46.60
51476;DHT22;37554;50.362;7.568;2023-03-12T10:38:57;15.60;46.40
51476;DHT22;37554;50.362;7.568;2023-03-12T10:41:26;15.90;46.30
51476;DHT22;37554;50.362;7.568;2023-03-12T10:44:00;16.10;45.80
51476;DHT22;37554;50.362;7.568;2023-03-12T10:46:37;16.50;45.50
51476;DHT22;37554;50.362;7.568;2023-03-12T10:49:24;16.70;45.10
51476;DHT22;37554;50.362;7.568;2023-03-12T10:54:40;17.60;45.00
51476;DHT22;37554;50.362;7.568;2023-03-12T10:57:10;18.10;44.40
51476;DHT22;37554;50.362;7.568;2023-03-12T10:59:45;18.30;44.10
51476;DHT22;37554;50.362;7.568;2023-03-12T11:02:35;18.60;43.90
51476;DHT22;37554;50.362;7.568;2023-03-12T11:07:54;19.70;43.60
51476;DHT22;37554;50.362;7.568;2023-03-12T11:10:49;20.30;42.40
51476;DHT22;37554;50.362;7.568;2023-03-12T11:13:22;21.00;41.90
51476;DHT22;37554;50.362;7.568;2023-03-12T11:15:55;21.70;41.00
51476;DHT22;37554;50.362;7.568;2023-03-12T11:21:16;22.20;39.60
51476;DHT22;37554;50.362;7.568;2023-03-12T11:24:03;21.90;39.70
51476;DHT22;37554;50.362;7.568;2023-03-12T11:26:36;21.60;40.20
51476;DHT22;37554;50.362;7.568;2023-03-12T11:29:12;21.40;40.80
51476;DHT22;37554;50.362;7.568;2023-03-12T11:31:46;21.30;41.10
51476;DHT22;37554;50.362;7.568;2023-03-12T11:34:21;21.30;41.00
51476;DHT22;37554;50.362;7.568;2023-03-12T11:39:37;21.00;41.30
51476;DHT22;37554;50.362;7.568;2023-03-12T11:42:19;20.90;41.50
51476;DHT22;37554;50.362;7.568;2023-03-12T11:47:38;20.70;41.90
51476;DHT22;37554;50.362;7.568;2023-03-12T11:50:21;20.90;41.80
51476;DHT22;37554;50.362;7.568;2023-03-12T11:58:56;22.10;40.30
51476;DHT22;37554;50.362;7.568;2023-03-12T12:01:38;21.90;40.50
51476;DHT22;37554;50.362;7.568;2023-03-12T12:04:39;21.70;40.60
51476;DHT22;37554;50.362;7.568;2023-03-12T12:18:33;21.10;41.70
51476;DHT22;37554;50.362;7.568;2023-03-12T12:21:08;21.10;41.70
51476;DHT22;37554;50.362;7.568;2023-03-12T12:26:22;20.80;42.10
51476;DHT22;37554;50.362;7.568;2023-03-12T12:34:19;20.40;42.70
51476;DHT22;37554;50.362;7.568;2023-03-12T12:37:39;20.20;42.70
51476;DHT22;37554;50.362;7.568;2023-03-12T12:39:44;20.20;43.00
51476;DHT22;37554;50.362;7.568;2023-03-12T12:42:17;20.10;43.20
51476;DHT22;37554;50.362;7.568;2023-03-12T12:44:51;20.00;43.30
51476;DHT22;37554;50.362;7.568;2023-03-12T12:47:45;20.00;43.50
51476;DHT22;37554;50.362;7.568;2023-03-12T12:50:34;19.90;43.70
51476;DHT22;37554;50.362;7.568;2023-03-12T12:53:23;19.80;43.90
51476;DHT22;37554;50.362;7.568;2023-03-12T12:56:09;19.80;44.00
51476;DHT22;37554;50.362;7.568;2023-03-12T13:01:05;19.70;44.20
51476;DHT22;37554;50.362;7.568;2023-03-12T13:03:31;19.70;44.30
51476;DHT22;37554;50.362;7.568;2023-03-12T13:06:00;19.60;44.30
51476;DHT22;37554;50.362;7.568;2023-03-12T13:11:21;19.40;44.80
51476;DHT22;37554;50.362;7.568;2023-03-12T13:13:50;19.00;45.70
51476;DHT22;37554;50.362;7.568;2023-03-12T13:24:29;18.60;47.10
51476;DHT22;37554;50.362;7.568;2023-03-12T13:27:06;18.70;47.10
51476;DHT22;37554;50.362;7.568;2023-03-12T13:29:37;18.80;46.80
51476;DHT22;37554;50.362;7.568;2023-03-12T13:33:03;18.90;46.60
51476;DHT22;37554;50.362;7.568;2023-03-12T13:34:55;19.00;46.50
51476;DHT22;37554;50.362;7.568;2023-03-12T13:37:46;19.20;46.30
51476;DHT22;37554;50.362;7.568;2023-03-12T13:40:50;19.40;46.10
51476;DHT22;37554;50.362;7.568;2023-03-12T13:48:44;22.00;43.40
51476;DHT22;37554;50.362;7.568;2023-03-12T13:53:41;22.00;42.10
51476;DHT22;37554;50.362;7.568;2023-03-12T13:56:17;21.60;42.70
51476;DHT22;37554;50.362;7.568;2023-03-12T13:59:12;21.40;43.10
51476;DHT22;37554;50.362;7.568;2023-03-12T14:01:48;21.30;43.60
51476;DHT22;37554;50.362;7.568;2023-03-12T14:04:22;21.40;43.40
51476;DHT22;37554;50.362;7.568;2023-03-12T14:14:56;20.50;44.80
51476;DHT22;37554;50.362;7.568;2023-03-12T14:17:26;20.40;45.00
51476;DHT22;37554;50.362;7.568;2023-03-12T14:22:44;20.10;45.60
51476;DHT22;37554;50.362;7.568;2023-03-12T14:27:45;19.90;45.90
51476;DHT22;37554;50.362;7.568;2023-03-12T14:32:39;19.70;46.30
51476;DHT22;37554;50.362;7.568;2023-03-12T14:35:27;19.60;46.50
51476;DHT22;37554;50.362;7.568;2023-03-12T14:43:28;19.40;47.20
51476;DHT22;37554;50.362;7.568;2023-03-12T14:45:59;19.40;47.00
51476;DHT22;37554;50.362;7.568;2023-03-12T14:48:31;19.40;47.00
51476;DHT22;37554;50.362;7.568;2023-03-12T14:50:58;19.40;47.90
51476;DHT22;37554;50.362;7.568;2023-03-12T14:56:00;19.20;47.40
51476;DHT22;37554;50.362;7.568;2023-03-12T14:58:26;19.10;47.70
51476;DHT22;37554;50.362;7.568;2023-03-12T15:01:01;19.10;48.40
51476;DHT22;37554;50.362;7.568;2023-03-12T15:03:27;19.10;48.10
51476;DHT22;37554;50.362;7.568;2023-03-12T15:05:55;19.00;48.00
51476;DHT22;37554;50.362;7.568;2023-03-12T15:08:21;19.00;48.00
51476;DHT22;37554;50.362;7.568;2023-03-12T15:10:49;19.00;48.10
51476;DHT22;37554;50.362;7.568;2023-03-12T15:13:16;18.90;48.10
51476;DHT22;37554;50.362;7.568;2023-03-12T15:15:48;18.80;48.20
51476;DHT22;37554;50.362;7.568;2023-03-12T15:20:44;18.70;48.60
51476;DHT22;37554;50.362;7.568;2023-03-12T15:23:12;18.70;48.70
51476;DHT22;37554;50.362;7.568;2023-03-12T15:25:38;18.70;48.60
51476;DHT22;37554;50.362;7.568;2023-03-12T15:30:40;18.70;48.50
51476;DHT22;37554;50.362;7.568;2023-03-12T15:33:08;18.70;48.50
51476;DHT22;37554;50.362;7.568;2023-03-12T15:35:37;18.60;48.50
51476;DHT22;37554;50.362;7.568;2023-03-12T15:38:04;18.60;48.50
51476;DHT22;37554;50.362;7.568;2023-03-12T15:40:30;18.60;48.70
51476;DHT22;37554;50.362;7.568;2023-03-12T15:42:57;18.50;48.70
51476;DHT22;37554;50.362;7.568;2023-03-12T15:45:35;18.50;48.80
51476;DHT22;37554;50.362;7.568;2023-03-12T15:48:04;18.50;48.80
51476;DHT22;37554;50.362;7.568;2023-03-12T15:50:40;18.40;48.80
51476;DHT22;37554;50.362;7.568;2023-03-12T15:53:25;18.30;48.80
51476;DHT22;37554;50.362;7.568;2023-03-12T15:56:06;18.30;49.10
51476;DHT22;37554;50.362;7.568;2023-03-12T15:58:44;18.30;49.00
51476;DHT22;37554;50.362;7.568;2023-03-12T16:01:13;18.20;49.30
51476;DHT22;37554;50.362;7.568;2023-03-12T16:03:41;18.20;48.90
51476;DHT22;37554;50.362;7.568;2023-03-12T16:06:20;18.20;48.90
51476;DHT22;37554;50.362;7.568;2023-03-12T16:08:54;18.20;48.90
51476;DHT22;37554;50.362;7.568;2023-03-12T16:11:23;18.20;48.90
51476;DHT22;37554;50.362;7.568;2023-03-12T16:13:51;18.10;48.80
51476;DHT22;37554;50.362;7.568;2023-03-12T16:16:20;18.10;48.80
51476;DHT22;37554;50.362;7.568;2023-03-12T16:18:46;18.10;48.80
51476;DHT22;37554;50.362;7.568;2023-03-12T16:21:11;18.10;48.90
51476;DHT22;37554;50.362;7.568;2023-03-12T16:23:37;18.00;48.90
51476;DHT22;37554;50.362;7.568;2023-03-12T16:26:04;18.00;48.90
51476;DHT22;37554;50.362;7.568;2023-03-12T16:28:33;17.90;49.00
51476;DHT22;37554;50.362;7.568;2023-03-12T16:30:59;17.90;49.00
51476;DHT22;37554;50.362;7.568;2023-03-12T16:33:25;17.90;49.10
51476;DHT22;37554;50.362;7.568;2023-03-12T16:35:51;17.90;49.10
51476;DHT22;37554;50.362;7.568;2023-03-12T16:38:17;17.80;49.10
51476;DHT22;37554;50.362;7.568;2023-03-12T16:40:45;17.70;49.20
51476;DHT22;37554;50.362;7.568;2023-03-12T16:43:23;17.70;49.20
51476;DHT22;37554;50.362;7.568;2023-03-12T16:45:50;17.70;49.30
51476;DHT22;37554;50.362;7.568;2023-03-12T16:48:21;17.70;49.20
51476;DHT22;37554;50.362;7.568;2023-03-12T16:50:56;17.60;49.30
51476;DHT22;37554;50.362;7.568;2023-03-12T16:53:22;17.70;50.00
51476;DHT22;37554;50.362;7.568;2023-03-12T16:55:57;17.60;49.30
51476;DHT22;37554;50.362;7.568;2023-03-12T16:58:24;17.60;49.40
51476;DHT22;37554;50.362;7.568;2023-03-12T17:00:51;17.50;49.40
51476;DHT22;37554;50.362;7.568;2023-03-12T17:05:54;17.40;49.40
51476;DHT22;37554;50.362;7.568;2023-03-12T17:08:19;17.40;49.40
51476;DHT22;37554;50.362;7.568;2023-03-12T17:10:45;17.40;49.80
51476;DHT22;37554;50.362;7.568;2023-03-12T17:13:26;17.30;49.40
51476;DHT22;37554;50.362;7.568;2023-03-12T17:15:52;17.30;49.50
51476;DHT22;37554;50.362;7.568;2023-03-12T17:18:18;17.30;49.50
51476;DHT22;37554;50.362;7.568;2023-03-12T17:20:45;17.30;49.60
51476;DHT22;37554;50.362;7.568;2023-03-12T17:23:12;17.20;49.50
51476;DHT22;37554;50.362;7.568;2023-03-12T17:25:40;17.20;49.60
51476;DHT22;37554;50.362;7.568;2023-03-12T17:28:07;17.20;49.60
51476;DHT22;37554;50.362;7.568;2023-03-12T17:30:33;17.20;49.60